Time;durP1;ratioP1;P1;durP2;ratioP2;P2;SDS_P1;SDS_P2;PMS_P1;PMS_P2;Temp;Humidity;BMP_temperature;BMP_pressure;BME280_temperature;BME280_humidity;BME280_pressure;Samples;Min_cycle;Max_cycle;Signal;HPM_P1;HPM_P2
2022/03/09 00:00:54;;;;;;;15.65;9.13;;;4.30;56.50;;;;;;5032196;28;20481;-65
2022/03/09 00:03:20;;;;;;;14.35;8.77;;;4.30;56.70;;;;;;5031867;28;20083;-65
2022/03/09 00:05:45;;;;;;;13.77;9.30;;;4.30;57.00;;;;;;5031985;28;20030;-65
2022/03/09 00:08:11;;;;;;;13.63;8.85;;;4.30;57.20;;;;;;5032100;28;20511;-65
2022/03/09 00:10:36;;;;;;;12.93;8.25;;;4.20;57.20;;;;;;5031865;28;20028;-65
2022/03/09 00:13:02;;;;;;;13.90;8.20;;;4.20;57.30;;;;;;5031920;28;20104;-65
2022/03/09 00:15:27;;;;;;;13.35;8.77;;;4.20;57.40;;;;;;5031682;28;20390;-65
2022/03/09 00:17:53;;;;;;;13.25;9.05;;;4.10;57.50;;;;;;5031942;28;20096;-65
2022/03/09 00:20:19;;;;;;;16.08;8.68;;;4.10;57.60;;;;;;5014136;28;20021;-65
2022/03/09 00:22:44;;;;;;;14.23;9.23;;;4.00;57.80;;;;;;5014200;28;20025;-66
2022/03/09 00:25:10;;;;;;;13.35;8.77;;;4.00;57.80;;;;;;5032245;28;20029;-65
2022/03/09 00:27:36;;;;;;;14.18;9.25;;;4.00;58.00;;;;;;5013929;28;20030;-65
2022/03/09 00:30:02;;;;;;;17.60;9.70;;;4.00;58.00;;;;;;5031838;28;20029;-65
2022/03/09 00:32:28;;;;;;;14.82;8.77;;;4.00;58.10;;;;;;5031620;28;20018;-65
2022/03/09 00:34:53;;;;;;;13.70;8.70;;;3.90;58.20;;;;;;5031741;28;20481;-65
2022/03/09 00:37:19;;;;;;;13.32;8.75;;;3.90;58.40;;;;;;5031735;28;20489;-65
2022/03/09 00:39:45;;;;;;;14.23;9.18;;;3.90;58.50;;;;;;5031692;28;20036;-66
2022/03/09 00:42:10;;;;;;;14.00;9.68;;;3.80;58.70;;;;;;5031632;28;20136;-65
2022/03/09 00:44:36;;;;;;;15.88;9.52;;;3.80;59.00;;;;;;5031493;28;20040;-65
2022/03/09 00:47:01;;;;;;;16.42;10.60;;;3.80;59.10;;;;;;5031750;28;20108;-65
2022/03/09 00:49:27;;;;;;;14.30;9.70;;;3.80;59.20;;;;;;5031385;28;20076;-64
2022/03/09 00:51:53;;;;;;;14.57;9.60;;;3.80;59.20;;;;;;5031696;28;20499;-65
2022/03/09 00:54:18;;;;;;;17.35;9.65;;;3.70;59.10;;;;;;5031544;28;20026;-65
2022/03/09 00:56:43;;;;;;;14.30;8.88;;;3.70;59.00;;;;;;5031461;28;20041;-65
2022/03/09 00:59:09;;;;;;;14.65;9.70;;;3.70;59.10;;;;;;5031634;28;20033;-65
2022/03/09 01:01:35;;;;;;;16.33;9.60;;;3.70;59.10;;;;;;5031383;28;20385;-65
2022/03/09 01:04:00;;;;;;;15.80;9.68;;;3.70;59.20;;;;;;5031450;28;20029;-65
2022/03/09 01:06:26;;;;;;;16.85;9.10;;;3.60;59.30;;;;;;5013863;28;20428;-65
2022/03/09 01:08:51;;;;;;;14.57;9.40;;;3.60;59.30;;;;;;5035292;28;20040;-64
2022/03/09 01:11:17;;;;;;;13.95;9.35;;;3.60;59.30;;;;;;5017198;28;20104;-66
2022/03/09 01:13:42;;;;;;;14.98;9.75;;;3.60;59.30;;;;;;5035045;28;20029;-65
2022/03/09 01:16:08;;;;;;;15.38;9.95;;;3.50;59.20;;;;;;5034920;28;20583;-65
2022/03/09 01:18:33;;;;;;;14.30;8.63;;;3.50;59.30;;;;;;5034836;28;20033;-65
2022/03/09 01:20:59;;;;;;;13.50;8.82;;;3.50;59.40;;;;;;5034976;28;20065;-65
2022/03/09 01:23:25;;;;;;;18.88;9.63;;;3.50;59.40;;;;;;5017165;28;20025;-65
2022/03/09 01:25:51;;;;;;;15.80;9.98;;;3.50;59.30;;;;;;5034532;28;20430;-65
2022/03/09 01:28:17;;;;;;;15.73;9.35;;;3.50;59.40;;;;;;5017042;28;20024;-65
2022/03/09 01:30:43;;;;;;;16.30;9.88;;;3.50;59.50;;;;;;5034695;28;20021;-65
2022/03/09 01:33:09;;;;;;;17.73;9.73;;;3.50;59.50;;;;;;5034914;28;20041;-65
2022/03/09 01:35:34;;;;;;;16.27;9.60;;;3.50;59.50;;;;;;5034859;28;20025;-64
2022/03/09 01:38:00;;;;;;;14.43;9.55;;;3.50;59.60;;;;;;5034739;28;20065;-65
2022/03/09 01:40:26;;;;;;;16.48;10.10;;;3.40;59.60;;;;;;5034424;28;20033;-65
2022/03/09 01:42:51;;;;;;;15.30;9.20;;;3.40;59.70;;;;;;5034414;28;20086;-65
2022/03/09 01:45:18;;;;;;;15.43;9.70;;;3.40;60.50;;;;;;5034360;28;20025;-65
2022/03/09 01:47:44;;;;;;;15.88;9.43;;;3.40;59.70;;;;;;5034425;28;20337;-65
2022/03/09 01:50:10;;;;;;;12.32;8.38;;;3.40;59.70;;;;;;5034244;28;20077;-65
2022/03/09 01:52:37;;;;;;;14.30;9.48;;;3.30;59.70;;;;;;5034223;28;20099;-65
2022/03/09 01:55:03;;;;;;;13.45;9.07;;;3.30;59.70;;;;;;5034112;28;20112;-65
2022/03/09 01:57:30;;;;;;;13.85;9.38;;;3.30;59.80;;;;;;5034075;28;20060;-65
2022/03/09 01:59:56;;;;;;;16.45;9.45;;;3.30;59.80;;;;;;5034272;28;20026;-65
2022/03/09 02:02:22;;;;;;;15.93;9.00;;;3.20;60.00;;;;;;5016329;28;20535;-65
2022/03/09 02:04:47;;;;;;;13.88;8.90;;;3.20;60.20;;;;;;5033755;28;20030;-65
2022/03/09 02:07:13;;;;;;;16.10;10.15;;;3.20;60.10;;;;;;5016532;28;20495;-65
2022/03/09 02:09:43;;;;;;;14.75;8.73;;;3.20;60.20;;;;;;5033654;28;20063;-65
2022/03/09 02:12:11;;;;;;;;;;;3.20;60.30;;;;;;5034783;28;20009;-65
2022/03/09 02:14:40;;;;;;;14.63;9.00;;;3.10;60.30;;;;;;5034132;28;19913;-64
2022/03/09 02:17:10;;;;;;;13.40;8.80;;;3.10;60.50;;;;;;5033907;28;20017;-65
2022/03/09 02:19:36;;;;;;;15.07;9.52;;;3.10;60.50;;;;;;5032576;28;20037;-65
2022/03/09 02:22:37;;;;;;;17.85;9.45;;;3.10;60.50;;;;;;5033548;28;20083;-65
2022/03/09 02:25:05;;;;;;;18.25;9.63;;;3.10;60.60;;;;;;5020666;28;20049;-65
2022/03/09 02:27:30;;;;;;;14.15;10.20;;;3.00;60.70;;;;;;5018360;28;20033;-65
2022/03/09 02:29:56;;;;;;;17.20;9.38;;;3.00;60.90;;;;;;5014305;28;20022;-65
2022/03/09 02:32:22;;;;;;;18.10;9.68;;;3.00;61.10;;;;;;5013754;28;20513;-65
2022/03/09 02:34:49;;;;;;;14.75;9.27;;;2.90;61.20;;;;;;5013715;28;20034;-65
2022/03/09 02:37:14;;;;;;;13.65;8.77;;;2.90;61.40;;;;;;5013681;28;20026;-65
2022/03/09 02:39:40;;;;;;;16.60;9.85;;;2.80;61.60;;;;;;5032066;28;20028;-64
2022/03/09 02:42:07;;;;;;;15.88;9.82;;;2.80;61.70;;;;;;5033440;28;20033;-64
2022/03/09 02:44:32;;;;;;;15.90;9.40;;;2.70;61.90;;;;;;5033273;28;20060;-65
2022/03/09 02:46:58;;;;;;;17.45;9.80;;;2.70;62.10;;;;;;5048482;28;20029;-65
2022/03/09 02:49:25;;;;;;;13.68;8.30;;;2.70;62.40;;;;;;5033182;28;20465;-64
2022/03/09 02:51:51;;;;;;;14.48;9.50;;;2.70;62.60;;;;;;5033332;28;20029;-65
2022/03/09 02:54:16;;;;;;;12.82;9.30;;;2.70;62.80;;;;;;5033151;28;20029;-65
2022/03/09 02:56:42;;;;;;;14.57;8.93;;;2.70;63.00;;;;;;5033040;28;20393;-65
2022/03/09 02:59:08;;;;;;;14.63;8.88;;;2.60;63.10;;;;;;5033116;28;20030;-65
2022/03/09 03:01:34;;;;;;;15.00;10.25;;;2.60;63.40;;;;;;5032948;28;20053;-65
2022/03/09 03:03:59;;;;;;;13.65;8.65;;;2.60;63.60;;;;;;5031572;28;20116;-64
2022/03/09 03:06:25;;;;;;;15.00;9.15;;;2.60;63.60;;;;;;5032771;28;20022;-65
2022/03/09 03:08:51;;;;;;;15.00;8.50;;;2.50;63.70;;;;;;5033012;28;20017;-65
2022/03/09 03:11:16;;;;;;;17.10;10.75;;;2.50;63.90;;;;;;5032855;28;20053;-65
2022/03/09 03:13:42;;;;;;;14.20;8.70;;;2.50;63.90;;;;;;5032612;28;20118;-65
2022/03/09 03:16:09;;;;;;;16.45;9.18;;;2.50;63.90;;;;;;5032604;28;20034;-65
2022/03/09 03:18:34;;;;;;;18.35;9.90;;;2.40;63.70;;;;;;5032671;28;20087;-65
2022/03/09 03:21:00;;;;;;;16.55;9.80;;;2.40;63.80;;;;;;5032610;28;20547;-65
2022/03/09 03:23:27;;;;;;;15.88;9.60;;;2.40;63.70;;;;;;5032515;28;20034;-64
2022/03/09 03:25:54;;;;;;;15.48;9.00;;;2.40;63.80;;;;;;5032586;28;20067;-64
2022/03/09 03:28:20;;;;;;;14.85;9.48;;;2.40;63.70;;;;;;5032427;28;20026;-65
2022/03/09 03:30:47;;;;;;;13.32;9.13;;;2.40;63.80;;;;;;5032037;28;20013;-65
2022/03/09 03:33:14;;;;;;;15.18;9.10;;;2.30;63.80;;;;;;5032458;28;20044;-65
2022/03/09 03:35:40;;;;;;;13.23;8.70;;;2.30;63.80;;;;;;5032199;28;20026;-65
2022/03/09 03:38:06;;;;;;;15.05;9.80;;;2.30;64.00;;;;;;5032417;28;20029;-65
2022/03/09 03:40:32;;;;;;;17.63;9.95;;;2.30;64.10;;;;;;5032283;28;20469;-64
2022/03/09 03:42:57;;;;;;;14.32;8.75;;;2.20;64.10;;;;;;5032247;28;20595;-65
2022/03/09 03:45:23;;;;;;;18.48;12.02;;;2.20;64.10;;;;;;5032265;28;20469;-65
2022/03/09 03:47:49;;;;;;;13.95;9.60;;;2.20;64.20;;;;;;5032199;28;20030;-65
2022/03/09 03:50:15;;;;;;;16.75;9.57;;;2.20;64.30;;;;;;5014421;28;20888;-64
2022/03/09 03:52:40;;;;;;;16.17;10.38;;;2.10;64.40;;;;;;5032085;28;20477;-64
2022/03/09 03:55:06;;;;;;;17.42;9.57;;;2.10;64.40;;;;;;5032527;28;20025;-64
2022/03/09 03:57:32;;;;;;;16.90;9.02;;;2.10;64.60;;;;;;5032252;28;20036;-65
2022/03/09 03:59:57;;;;;;;16.02;9.13;;;2.10;64.60;;;;;;5032002;28;20029;-64
2022/03/09 04:02:23;;;;;;;13.00;8.98;;;2.10;64.60;;;;;;5032090;28;20073;-65
2022/03/09 04:04:50;;;;;;;14.63;9.25;;;2.10;64.80;;;;;;5031958;28;20040;-64
2022/03/09 04:07:16;;;;;;;17.58;9.98;;;2.00;65.00;;;;;;5031954;28;20021;-65
2022/03/09 04:09:42;;;;;;;15.77;10.05;;;2.00;65.00;;;;;;5031925;28;20036;-65
2022/03/09 04:12:08;;;;;;;14.73;9.52;;;1.90;65.10;;;;;;5031983;28;20053;-64
2022/03/09 04:14:34;;;;;;;15.65;9.77;;;1.90;65.20;;;;;;5031852;28;20120;-65
2022/03/09 04:16:59;;;;;;;16.13;9.57;;;1.90;65.30;;;;;;5031102;28;20421;-65
2022/03/09 04:19:25;;;;;;;12.40;8.38;;;1.90;65.30;;;;;;5031885;28;20499;-65
2022/03/09 04:21:51;;;;;;;14.82;8.55;;;1.90;65.30;;;;;;5031930;28;20040;-65
2022/03/09 04:24:16;;;;;;;15.05;8.88;;;1.90;65.30;;;;;;5031969;28;20030;-65
2022/03/09 04:26:42;;;;;;;15.27;9.40;;;1.90;65.20;;;;;;5031632;28;20505;-65
2022/03/09 04:29:07;;;;;;;16.75;9.10;;;1.90;65.40;;;;;;5031836;28;20037;-64
2022/03/09 04:31:33;;;;;;;18.73;10.40;;;1.90;65.50;;;;;;5047022;28;20111;-65
2022/03/09 04:33:58;;;;;;;14.38;8.85;;;1.80;65.60;;;;;;5031744;28;20461;-65
2022/03/09 04:36:24;;;;;;;14.48;8.98;;;1.80;65.70;;;;;;5046965;28;20021;-65
2022/03/09 04:38:49;;;;;;;13.30;8.48;;;1.80;65.90;;;;;;5031839;28;20025;-65
2022/03/09 04:41:15;;;;;;;15.23;8.63;;;1.80;66.10;;;;;;5031828;28;20033;-65
2022/03/09 04:43:40;;;;;;;14.77;9.00;;;1.80;66.10;;;;;;5035299;28;20068;-65
2022/03/09 04:46:06;;;;;;;14.70;9.23;;;1.80;66.20;;;;;;5035594;28;20025;-65
2022/03/09 04:48:32;;;;;;;14.35;9.15;;;1.80;66.40;;;;;;5035447;28;20469;-65
2022/03/09 04:50:57;;;;;;;14.93;8.95;;;1.70;66.30;;;;;;5035372;28;20285;-65
2022/03/09 04:53:23;;;;;;;15.38;9.38;;;1.70;66.50;;;;;;5035487;28;20437;-65
2022/03/09 04:55:48;;;;;;;15.02;9.00;;;1.70;66.60;;;;;;5035353;28;20033;-64
2022/03/09 04:58:14;;;;;;;15.30;10.00;;;1.70;66.80;;;;;;5035283;28;20022;-65
2022/03/09 05:00:39;;;;;;;15.95;9.77;;;1.70;67.00;;;;;;5033889;28;20025;-65
2022/03/09 05:03:05;;;;;;;13.57;9.25;;;1.60;67.00;;;;;;5035200;28;20033;-65
2022/03/09 05:05:30;;;;;;;16.33;8.63;;;1.60;67.00;;;;;;5035200;28;20060;-64
2022/03/09 05:07:56;;;;;;;16.60;9.88;;;1.60;66.80;;;;;;5035068;28;20029;-65
2022/03/09 05:10:21;;;;;;;14.07;9.23;;;1.60;66.70;;;;;;5035032;28;20029;-65
2022/03/09 05:12:47;;;;;;;16.70;9.95;;;1.60;66.60;;;;;;5034923;28;20025;-65
2022/03/09 05:15:12;;;;;;;16.65;9.27;;;1.60;66.50;;;;;;5035025;28;20033;-65
2022/03/09 05:17:43;;;;;;;12.68;8.77;;;1.60;66.40;;;;;;5034845;28;20073;-65
2022/03/09 05:20:10;;;;;;;14.32;9.27;;;1.70;66.40;;;;;;5035009;28;20017;-65
2022/03/09 05:22:35;;;;;;;15.52;8.68;;;1.60;66.40;;;;;;5034833;28;20033;-65
2022/03/09 05:25:01;;;;;;;12.60;8.77;;;1.60;66.40;;;;;;5034864;28;20037;-65
2022/03/09 05:27:27;;;;;;;16.42;9.25;;;1.70;66.40;;;;;;5034718;28;20031;-65
2022/03/09 05:29:53;;;;;;;16.70;8.95;;;1.60;66.60;;;;;;5034805;28;20021;-65
2022/03/09 05:32:19;;;;;;;13.82;8.43;;;1.60;66.60;;;;;;5034703;28;20021;-65
2022/03/09 05:34:46;;;;;;;13.57;8.57;;;1.60;66.60;;;;;;5034698;28;20047;-64
2022/03/09 05:37:12;;;;;;;14.88;9.00;;;1.60;66.60;;;;;;5034843;28;20087;-64
2022/03/09 05:39:37;;;;;;;16.08;8.77;;;1.60;66.60;;;;;;5034522;28;20037;-65
2022/03/09 05:42:03;;;;;;;14.93;8.73;;;1.60;66.70;;;;;;5034414;28;20025;-64
2022/03/09 05:44:29;;;;;;;16.48;10.10;;;1.60;66.70;;;;;;5033089;28;20030;-64
2022/03/09 05:46:56;;;;;;;15.32;8.48;;;1.60;66.90;;;;;;5034740;28;20020;-65
2022/03/09 05:49:22;;;;;;;17.00;9.30;;;1.60;67.00;;;;;;5016361;28;20017;-64
2022/03/09 05:51:48;;;;;;;15.27;8.60;;;1.60;67.00;;;;;;5034449;28;20022;-65
2022/03/09 05:54:13;;;;;;;12.63;8.27;;;1.60;67.00;;;;;;5034056;28;20052;-64
2022/03/09 05:56:39;;;;;;;15.75;8.40;;;1.60;67.00;;;;;;5034078;28;20397;-65
2022/03/09 05:59:05;;;;;;;14.45;8.20;;;1.60;67.00;;;;;;5034147;28;20104;-65
2022/03/09 06:01:31;;;;;;;18.00;9.25;;;1.60;67.10;;;;;;5034134;28;20113;-65
2022/03/09 06:03:56;;;;;;;15.45;9.13;;;1.60;67.10;;;;;;5034083;28;20472;-64
2022/03/09 06:06:22;;;;;;;15.57;8.27;;;1.60;67.10;;;;;;5034069;28;20013;-65
2022/03/09 06:08:47;;;;;;;16.45;8.82;;;1.60;67.10;;;;;;5034006;28;20029;-65
2022/03/09 06:11:13;;;;;;;18.73;8.82;;;1.60;67.10;;;;;;5033959;28;20038;-65
2022/03/09 06:13:38;;;;;;;16.60;8.80;;;1.60;67.20;;;;;;5033954;28;20052;-65
2022/03/09 06:16:04;;;;;;;14.23;8.23;;;1.60;67.00;;;;;;5034097;28;20476;-65
2022/03/09 06:18:30;;;;;;;13.10;8.60;;;1.60;67.00;;;;;;5033843;28;20527;-65
2022/03/09 06:20:55;;;;;;;13.55;8.38;;;1.60;67.00;;;;;;5033905;28;20066;-65
2022/03/09 06:23:21;;;;;;;16.55;8.02;;;1.60;66.90;;;;;;5033681;28;20436;-65
2022/03/09 06:25:46;;;;;;;15.55;8.85;;;1.60;66.80;;;;;;5049077;28;20029;-64
2022/03/09 06:28:12;;;;;;;13.98;8.65;;;1.60;66.70;;;;;;5033672;28;20026;-65
2022/03/09 06:30:37;;;;;;;14.32;8.77;;;1.70;66.80;;;;;;5048894;28;20028;-65
2022/03/09 06:33:03;;;;;;;17.52;8.40;;;1.70;66.90;;;;;;5033572;28;20115;-65
2022/03/09 06:35:28;;;;;;;13.50;8.75;;;1.70;66.90;;;;;;5033670;28;20053;-65
2022/03/09 06:37:54;;;;;;;18.77;9.10;;;1.70;66.80;;;;;;5031343;28;20121;-65
2022/03/09 06:40:21;;;;;;;19.63;10.40;;;1.70;66.80;;;;;;5031353;28;20021;-64
2022/03/09 06:42:47;;;;;;;14.55;9.38;;;1.70;66.70;;;;;;5031752;28;20028;-65
2022/03/09 06:45:13;;;;;;;17.48;8.23;;;1.80;66.70;;;;;;5030733;28;20064;-65
2022/03/09 06:47:38;;;;;;;16.27;8.60;;;1.80;66.40;;;;;;5032289;28;20068;-65
2022/03/09 06:50:06;;;;;;;16.50;8.60;;;1.80;66.50;;;;;;5032858;28;20103;-64
2022/03/09 06:52:31;;;;;;;17.02;8.88;;;1.80;66.50;;;;;;5033106;28;20358;-64
2022/03/09 06:55:02;;;;;;;13.32;8.52;;;1.80;66.50;;;;;;5015420;28;20060;-65
2022/03/09 06:57:29;;;;;;;15.05;8.68;;;1.80;66.70;;;;;;5033122;28;20101;-65
2022/03/09 06:59:56;;;;;;;15.88;8.63;;;1.90;66.60;;;;;;5033080;28;20030;-64
2022/03/09 07:02:22;;;;;;;15.35;8.10;;;1.90;67.30;;;;;;5032958;28;20465;-65
2022/03/09 07:04:47;;;;;;;13.98;8.85;;;1.90;66.30;;;;;;5032365;28;20033;-65
2022/03/09 07:07:13;;;;;;;13.40;8.10;;;2.00;66.50;;;;;;5033022;28;20033;-64
2022/03/09 07:09:38;;;;;;;14.23;8.60;;;2.10;66.50;;;;;;5032475;28;20026;-65
2022/03/09 07:12:04;;;;;;;14.27;9.13;;;2.10;66.30;;;;;;5033363;28;20060;-64
2022/03/09 07:14:29;;;;;;;12.68;8.15;;;2.10;66.10;;;;;;5031540;28;20489;-65
2022/03/09 07:16:55;;;;;;;16.13;8.45;;;2.20;66.80;;;;;;5032898;28;20029;-64
2022/03/09 07:19:21;;;;;;;12.73;7.53;;;2.20;66.00;;;;;;5032424;28;20026;-64
2022/03/09 07:21:46;;;;;;;12.75;8.15;;;2.20;66.10;;;;;;5031957;28;20040;-65
2022/03/09 07:24:12;;;;;;;17.52;9.18;;;2.30;65.80;;;;;;5030686;28;20018;-65
2022/03/09 07:26:40;;;;;;;12.77;8.57;;;2.30;65.70;;;;;;5030336;28;20029;-64
2022/03/09 07:29:07;;;;;;;15.13;9.43;;;2.40;65.50;;;;;;5030706;28;20017;-65
2022/03/09 07:31:33;;;;;;;15.50;9.00;;;2.40;65.30;;;;;;5031580;28;20107;-65
2022/03/09 07:33:58;;;;;;;14.77;8.68;;;2.40;65.40;;;;;;5032615;28;20072;-64
2022/03/09 07:36:24;;;;;;;14.05;8.65;;;2.50;65.30;;;;;;5014961;28;20029;-65
2022/03/09 07:38:49;;;;;;;13.25;8.70;;;2.50;65.30;;;;;;5032433;28;20117;-65
2022/03/09 07:41:15;;;;;;;14.75;9.25;;;2.60;65.00;;;;;;5031305;28;20037;-64
2022/03/09 07:43:40;;;;;;;15.88;8.80;;;2.70;65.20;;;;;;5030471;28;20076;-64
2022/03/09 07:46:06;;;;;;;14.95;9.55;;;2.70;64.50;;;;;;5030993;28;20029;-64
2022/03/09 07:48:32;;;;;;;14.63;8.80;;;2.80;64.00;;;;;;5030398;28;20079;-64
2022/03/09 07:50:59;;;;;;;13.60;8.00;;;2.90;64.10;;;;;;5030509;28;20460;-64
2022/03/09 07:53:24;;;;;;;17.38;9.40;;;3.00;64.00;;;;;;5030916;28;20100;-65
2022/03/09 07:55:50;;;;;;;16.17;9.52;;;3.00;63.60;;;;;;5030473;28;20600;-65
2022/03/09 07:58:15;;;;;;;14.93;8.88;;;3.10;63.60;;;;;;5030401;28;20508;-65
2022/03/09 08:00:41;;;;;;;17.05;9.30;;;3.20;63.50;;;;;;5030185;28;20473;-65
2022/03/09 08:03:06;;;;;;;13.20;8.35;;;3.30;63.50;;;;;;5031976;28;20056;-64
2022/03/09 08:05:32;;;;;;;14.35;8.80;;;3.40;64.10;;;;;;5030603;28;20018;-65
2022/03/09 08:07:57;;;;;;;14.15;9.15;;;3.40;63.40;;;;;;5032243;28;20029;-64
2022/03/09 08:10:23;;;;;;;13.90;8.95;;;3.50;63.30;;;;;;5029473;28;20048;-65
2022/03/09 08:12:48;;;;;;;13.85;8.65;;;3.60;63.00;;;;;;5027186;28;20056;-65
2022/03/09 08:15:14;;;;;;;13.13;8.38;;;3.70;62.20;;;;;;5031334;28;20025;-65
2022/03/09 08:17:39;;;;;;;13.32;8.57;;;3.70;62.70;;;;;;5034448;28;20033;-65
2022/03/09 08:20:06;;;;;;;13.68;8.15;;;3.80;62.80;;;;;;5033018;28;20061;-64
2022/03/09 08:22:31;;;;;;;14.73;8.30;;;3.90;62.30;;;;;;5035638;28;20032;-65
2022/03/09 08:24:57;;;;;;;14.90;8.73;;;3.90;62.00;;;;;;5035820;28;20033;-65
2022/03/09 08:27:22;;;;;;;12.98;8.48;;;4.00;61.80;;;;;;5035667;28;20037;-65
2022/03/09 08:29:50;;;;;;;14.85;8.10;;;4.10;61.80;;;;;;5035935;28;20064;-65
2022/03/09 08:32:17;;;;;;;14.27;8.65;;;4.20;61.50;;;;;;5035756;28;20017;-65
2022/03/09 08:34:43;;;;;;;14.32;8.50;;;4.30;60.60;;;;;;5035606;28;20021;-65
2022/03/09 08:37:09;;;;;;;15.05;8.85;;;4.40;59.50;;;;;;5035636;28;20036;-66
2022/03/09 08:39:34;;;;;;;12.05;7.72;;;4.50;59.20;;;;;;5035448;28;20037;-65
2022/03/09 08:42:00;;;;;;;14.25;8.38;;;4.50;59.30;;;;;;5035586;28;20036;-65
2022/03/09 08:44:25;;;;;;;13.85;8.20;;;4.70;59.00;;;;;;5017684;28;20025;-64
2022/03/09 08:46:53;;;;;;;14.60;8.57;;;4.70;58.90;;;;;;5033781;28;20053;-65
2022/03/09 08:49:19;;;;;;;14.32;7.80;;;4.80;58.60;;;;;;5033351;28;20531;-64
2022/03/09 08:51:44;;;;;;;12.13;8.25;;;4.90;58.80;;;;;;5033464;28;20029;-65
2022/03/09 08:54:10;;;;;;;15.40;8.65;;;5.10;58.40;;;;;;5031231;28;20445;-65
2022/03/09 08:56:36;;;;;;;14.98;8.80;;;5.10;58.40;;;;;;5012417;28;20444;-65
2022/03/09 08:59:02;;;;;;;12.30;7.57;;;5.30;58.00;;;;;;5032398;28;20034;-65
2022/03/09 09:01:27;;;;;;;14.15;8.63;;;5.40;58.10;;;;;;5031510;28;20026;-65
2022/03/09 09:03:53;;;;;;;16.55;8.98;;;5.50;57.20;;;;;;5029429;28;20029;-65
2022/03/09 09:06:18;;;;;;;14.18;8.27;;;5.60;56.40;;;;;;5031285;28;20035;-65
2022/03/09 09:08:44;;;;;;;18.75;8.98;;;5.70;56.50;;;;;;5030984;28;20029;-65
2022/03/09 09:11:09;;;;;;;14.45;8.90;;;5.80;56.80;;;;;;5030868;28;20017;-65
2022/03/09 09:13:35;;;;;;;13.13;8.20;;;5.90;56.90;;;;;;5031088;28;20038;-65
2022/03/09 09:16:01;;;;;;;12.80;8.30;;;6.00;56.50;;;;;;5032698;28;20044;-65
2022/03/09 09:18:26;;;;;;;13.85;8.60;;;6.10;56.60;;;;;;5032928;28;20021;-66
2022/03/09 09:20:53;;;;;;;13.60;9.20;;;6.20;56.20;;;;;;5033157;28;20488;-65
2022/03/09 09:23:19;;;;;;;13.07;8.95;;;6.30;56.10;;;;;;5033090;28;20021;-65
2022/03/09 09:25:45;;;;;;;11.98;7.70;;;6.30;56.00;;;;;;5032780;28;20105;-66
2022/03/09 09:28:11;;;;;;;12.73;7.53;;;6.50;55.50;;;;;;5032345;28;20541;-65
2022/03/09 09:30:36;;;;;;;12.48;8.35;;;6.60;55.40;;;;;;5032770;28;20388;-65
2022/03/09 09:33:02;;;;;;;13.60;8.77;;;6.70;55.00;;;;;;5031385;28;20064;-65
2022/03/09 09:35:28;;;;;;;12.00;7.57;;;6.80;53.90;;;;;;5030687;28;20197;-65
2022/03/09 09:37:54;;;;;;;12.77;7.78;;;6.90;54.70;;;;;;5030901;28;20060;-65
2022/03/09 09:40:19;;;;;;;15.07;8.45;;;7.00;54.10;;;;;;5012748;28;20026;-65
2022/03/09 09:42:45;;;;;;;12.98;9.50;;;7.10;53.50;;;;;;5030524;28;20053;-65
2022/03/09 09:45:11;;;;;;;14.98;8.98;;;7.20;53.50;;;;;;5030611;28;20033;-66
2022/03/09 09:47:37;;;;;;;14.40;8.77;;;7.30;52.20;;;;;;5025336;28;20025;-65
2022/03/09 09:50:06;;;;;;;16.40;9.40;;;7.40;52.60;;;;;;5031837;28;20381;-65
2022/03/09 09:52:33;;;;;;;14.05;10.40;;;7.50;51.20;;;;;;5025708;28;20026;-65
2022/03/09 09:55:00;;;;;;;15.50;10.20;;;7.50;51.80;;;;;;5032847;28;20036;-65
2022/03/09 09:57:27;;;;;;;14.93;9.25;;;7.70;51.30;;;;;;5029628;28;20045;-66
2022/03/09 09:59:53;;;;;;;15.13;9.65;;;7.80;51.50;;;;;;5033263;28;20052;-65
2022/03/09 10:02:19;;;;;;;15.20;9.60;;;7.90;51.20;;;;;;5034253;28;20048;-65
2022/03/09 10:04:46;;;;;;;16.25;10.85;;;8.10;51.60;;;;;;5033837;28;20416;-65
2022/03/09 10:07:12;;;;;;;18.92;10.93;;;8.20;50.50;;;;;;5034004;28;20099;-65
2022/03/09 10:09:42;;;;;;;17.45;11.32;;;8.40;50.70;;;;;;5033949;28;20080;-65
2022/03/09 10:12:09;;;;;;;18.67;9.98;;;8.50;49.80;;;;;;5033894;28;20402;-65
2022/03/09 10:14:52;;;;;;;16.05;9.63;;;8.70;49.90;;;;;;5033850;28;20583;-66
2022/03/09 10:17:19;;;;;;;14.25;9.93;;;8.80;49.80;;;;;;5033237;28;20029;-65
2022/03/09 10:19:47;;;;;;;20.48;10.93;;;9.00;49.50;;;;;;5033460;28;20035;-65
2022/03/09 10:22:27;;;;;;;16.48;10.00;;;9.20;48.70;;;;;;5031891;28;20370;-65
2022/03/09 10:24:55;;;;;;;16.88;10.75;;;9.40;48.80;;;;;;5025864;28;20127;-65
2022/03/09 10:27:37;;;;;;;15.80;9.38;;;9.50;48.40;;;;;;5032569;28;20037;-66
2022/03/09 10:30:06;;;;;;;14.73;10.27;;;9.80;48.00;;;;;;5032773;28;20497;-65
2022/03/09 10:32:45;;;;;;;14.10;10.02;;;10.00;47.90;;;;;;5014956;28;20103;-65
2022/03/09 10:35:17;;;;;;;16.45;10.77;;;10.40;47.50;;;;;;5033086;28;20435;-65
2022/03/09 10:37:45;;;;;;;15.38;10.75;;;10.70;46.90;;;;;;5032444;28;20036;-66
2022/03/09 10:40:19;;;;;;;17.20;10.95;;;11.10;45.40;;;;;;5032294;28;20036;-66
2022/03/09 10:42:46;;;;;;;14.05;10.00;;;11.50;44.80;;;;;;5033528;28;20104;-66
2022/03/09 10:45:13;;;;;;;15.30;11.00;;;12.70;43.70;;;;;;5027091;28;20040;-66
2022/03/09 10:47:48;;;;;;;15.00;11.68;;;14.70;39.80;;;;;;5026502;28;20603;-66
2022/03/09 10:50:14;;;;;;;16.30;11.93;;;16.30;38.00;;;;;;5031489;28;20041;-65
2022/03/09 10:52:57;;;;;;;14.07;9.40;;;18.10;35.90;;;;;;5031245;28;20047;-66
2022/03/09 10:55:25;;;;;;;17.73;10.98;;;20.70;34.20;;;;;;5008796;28;20546;-66
2022/03/09 10:57:52;;;;;;;14.02;9.93;;;22.20;30.40;;;;;;5031549;28;20029;-66
2022/03/09 11:00:35;;;;;;;13.73;10.05;;;22.60;29.60;;;;;;5013498;28;20045;-65
2022/03/09 11:03:09;;;;;;;13.70;11.48;;;23.00;29.60;;;;;;5031156;28;20101;-66
2022/03/09 11:05:36;;;;;;;16.15;12.43;;;24.10;28.60;;;;;;5031229;28;20159;-65
2022/03/09 11:08:03;;;;;;;20.63;12.73;;;23.70;27.90;;;;;;5031125;28;20477;-65
2022/03/09 11:10:29;;;;;;;16.38;11.98;;;23.20;28.40;;;;;;5031874;28;20026;-65
2022/03/09 11:12:56;;;;;;;13.93;11.23;;;23.60;28.30;;;;;;5032664;28;20057;-65
2022/03/09 11:15:23;;;;;;;14.18;11.00;;;25.00;27.80;;;;;;5031203;28;20060;-65
2022/03/09 11:17:49;;;;;;;15.40;12.93;;;26.10;27.10;;;;;;5031211;28;20049;-66
2022/03/09 11:20:15;;;;;;;16.92;12.73;;;26.60;25.50;;;;;;5031265;28;20076;-66
2022/03/09 11:22:41;;;;;;;18.20;12.85;;;25.30;25.90;;;;;;5030282;28;20120;-66
2022/03/09 11:25:08;;;;;;;16.60;12.75;;;24.90;26.10;;;;;;5010849;28;20041;-66
2022/03/09 11:27:40;;;;;;;15.45;11.70;;;24.70;26.30;;;;;;5030890;28;20053;-66
2022/03/09 11:30:29;;;;;;;14.68;12.70;;;24.60;26.90;;;;;;5029224;28;20465;-66
2022/03/09 11:32:57;;;;;;;15.10;12.55;;;25.60;26.60;;;;;;5022786;28;20036;-66
2022/03/09 11:35:40;;;;;;;16.33;13.20;;;26.60;25.90;;;;;;5030375;28;20121;-66
2022/03/09 11:38:30;;;;;;;16.83;14.82;;;27.00;25.90;;;;;;5032466;28;20080;-66
2022/03/09 11:41:14;;;;;;;13.52;11.93;;;27.00;25.20;;;;;;5032425;28;20026;-67
2022/03/09 11:43:40;;;;;;;16.30;14.27;;;27.10;26.10;;;;;;5032155;28;20484;-66
2022/03/09 11:46:06;;;;;;;15.93;13.40;;;28.50;25.20;;;;;;5032394;28;20025;-66
2022/03/09 11:48:54;;;;;;;16.02;14.15;;;28.80;24.80;;;;;;5032151;28;20108;-67
2022/03/09 11:51:22;;;;;;;16.27;14.10;;;28.20;25.00;;;;;;5031672;28;20056;-67
2022/03/09 11:53:51;;;;;;;17.90;15.00;;;27.80;24.90;;;;;;5032136;28;20104;-67
2022/03/09 11:56:33;;;;;;;18.35;14.13;;;28.20;24.80;;;;;;5032115;28;20051;-67
2022/03/09 11:59:19;;;;;;;17.08;14.80;;;28.50;24.80;;;;;;5031266;28;20489;-67
2022/03/09 12:01:57;;;;;;;16.95;14.63;;;28.50;24.50;;;;;;5027512;28;20037;-67
2022/03/09 12:04:50;;;;;;;16.93;14.70;;;28.00;24.70;;;;;;5027243;28;20087;-67
2022/03/09 12:07:33;;;;;;;16.50;13.98;;;27.50;25.00;;;;;;5029328;28;20381;-67
2022/03/09 12:10:12;;;;;;;17.30;14.65;;;28.20;25.20;;;;;;5030615;28;20014;-67
2022/03/09 12:12:59;;;;;;;15.80;13.80;;;27.30;25.00;;;;;;5029175;28;20534;-67
2022/03/09 12:15:24;;;;;;;17.75;14.50;;;27.50;25.50;;;;;;5029714;28;20104;-68
2022/03/09 12:17:50;;;;;;;16.58;13.10;;;27.20;24.90;;;;;;5030212;28;20489;-66
2022/03/09 12:20:27;;;;;;;17.08;13.15;;;27.20;25.60;;;;;;5001811;28;20053;-66
2022/03/09 12:22:56;;;;;;;18.10;15.35;;;28.20;25.10;;;;;;5027094;28;20022;-66
2022/03/09 12:25:44;;;;;;;19.55;15.32;;;29.10;24.50;;;;;;5028031;28;20061;-67
2022/03/09 12:28:22;;;;;;;15.93;13.63;;;28.60;24.40;;;;;;5026676;28;20033;-67
2022/03/09 12:30:53;;;;;;;17.77;15.20;;;29.30;24.90;;;;;;5028805;28;20029;-66
2022/03/09 12:33:27;;;;;;;18.00;14.73;;;29.10;24.30;;;;;;5022189;28;20071;-67
2022/03/09 12:36:03;;;;;;;17.60;14.90;;;29.10;24.90;;;;;;5029003;28;20105;-67
2022/03/09 12:38:35;;;;;;;17.48;13.88;;;29.00;24.70;;;;;;5027923;28;20025;-67
2022/03/09 12:41:00;;;;;;;18.38;16.02;;;28.90;24.80;;;;;;5030374;28;20026;-67
2022/03/09 12:43:26;;;;;;;19.55;16.70;;;28.80;24.60;;;;;;5029752;28;20029;-67